Time;durP1;ratioP1;P1;durP2;ratioP2;P2;SDS_P1;SDS_P2;PMS_P1;PMS_P2;Temp;Humidity;BMP_temperature;BMP_pressure;BME280_temperature;BME280_humidity;BME280_pressure;Samples;Min_cycle;Max_cycle;Signal;HPM_P1;HPM_P2
2022/05/21 00:00:46;;;;;;;1.90;1.75;;;18.00;99.90;18.10;100199.00;;;;4955914;28;87507;-68
2022/05/21 00:03:13;;;;;;;6.88;1.77;;;18.00;99.90;18.20;100189.00;;;;4970545;28;87167;-68
2022/05/21 00:05:39;;;;;;;2.50;1.50;;;18.00;99.90;18.20;100189.00;;;;4954915;28;87884;-66
2022/05/21 00:08:08;;;;;;;1.92;1.65;;;18.10;99.90;18.20;100192.00;;;;4954952;28;106267;-66
2022/05/21 00:10:35;;;;;;;1.13;1.10;;;18.10;99.90;18.30;100208.00;;;;4955165;28;88782;-67
2022/05/21 00:13:01;;;;;;;2.08;1.58;;;18.20;99.90;18.30;100202.00;;;;4954815;28;99412;-66
2022/05/21 00:15:31;;;;;;;1.70;1.60;;;18.20;99.90;18.40;100209.00;;;;4955696;28;88778;-67
2022/05/21 00:17:57;;;;;;;2.28;2.08;;;18.20;99.90;18.40;100210.00;;;;4954347;28;109488;-70
2022/05/21 00:23:35;;;;;;;2.20;2.00;;;18.30;99.90;18.50;100239.00;;;;4953705;28;87907;-68
2022/05/21 00:26:09;;;;;;;1.75;1.40;;;18.40;99.90;18.50;100250.00;;;;4934612;28;90217;-68
2022/05/21 00:28:38;;;;;;;1.33;1.23;;;18.40;99.90;18.50;100262.00;;;;4936867;28;87132;-67
2022/05/21 00:31:05;;;;;;;6.60;1.85;;;18.40;99.90;18.50;100268.00;;;;4936707;28;87590;-68
2022/05/21 00:33:31;;;;;;;1.27;1.17;;;18.40;99.90;18.50;100283.00;;;;4955503;28;87729;-68
2022/05/21 00:35:57;;;;;;;2.45;1.27;;;18.40;99.90;18.40;100263.00;;;;4953986;28;88789;-68
2022/05/21 00:38:23;;;;;;;1.40;1.30;;;18.30;99.90;18.40;100278.00;;;;4954204;28;100277;-67
2022/05/21 00:40:51;;;;;;;1.20;1.10;;;18.30;99.90;18.30;100301.00;;;;4969927;28;87816;-67
2022/05/21 00:43:51;;;;;;;0.75;0.73;;;18.20;99.90;18.20;100300.00;;;;4954173;28;97518;-66
2022/05/21 00:46:26;;;;;;;1.13;1.00;;;18.10;99.90;18.10;100295.00;;;;4936240;28;90142;-67
2022/05/21 00:49:06;;;;;;;0.68;0.50;;;18.00;99.90;18.00;100320.00;;;;4936287;28;89408;-67
2022/05/21 00:51:43;;;;;;;0.93;0.77;;;17.90;99.90;17.90;100326.00;;;;4969407;28;87941;-67
2022/05/21 00:54:10;;;;;;;0.88;0.65;;;17.80;99.90;17.80;100335.00;;;;4969525;28;87135;-66
2022/05/21 00:56:43;;;;;;;0.73;0.68;;;17.70;99.90;17.70;100333.00;;;;4936305;28;89087;-66
2022/05/21 01:01:58;;;;;;;1.90;0.52;;;17.50;99.90;17.60;100347.00;;;;4951220;28;88829;-67
2022/05/21 01:04:25;;;;;;;1.55;0.73;;;17.50;99.90;17.50;100356.00;;;;4969713;28;87977;-67
2022/05/21 01:06:53;;;;;;;1.15;1.05;;;17.40;99.90;17.50;100357.00;;;;4952717;28;100584;-66
2022/05/21 01:09:19;;;;;;;1.10;1.00;;;17.40;99.90;17.40;100351.00;;;;4969648;28;107187;-66
2022/05/21 01:11:44;;;;;;;0.30;0.28;;;17.30;99.90;17.30;100373.00;;;;4956960;28;109193;-66
2022/05/21 01:14:41;;;;;;;0.80;0.80;;;17.20;99.90;17.20;100374.00;;;;4971671;28;108592;-66
2022/05/21 01:17:08;;;;;;;0.40;0.38;;;17.20;99.90;17.20;100366.00;;;;4956264;28;117125;-67
2022/05/21 01:20:04;;;;;;;1.38;0.70;;;17.10;99.90;17.10;100369.00;;;;4973387;28;96335;-66
2022/05/21 01:22:44;;;;;;;1.98;0.52;;;17.00;99.90;17.10;100369.00;;;;4953649;28;88124;-67
2022/05/21 01:25:13;;;;;;;0.47;0.45;;;17.00;99.90;17.10;100390.00;;;;4972827;28;87934;-68
2022/05/21 01:27:40;;;;;;;0.25;0.20;;;17.00;99.90;17.00;100363.00;;;;4955906;28;113743;-68
2022/05/21 01:30:10;;;;;;;1.23;0.77;;;16.90;99.90;17.00;100388.00;;;;4956879;28;118830;-68
2022/05/21 01:32:35;;;;;;;0.88;0.57;;;16.90;99.90;16.90;100391.00;;;;4957308;28;87819;-68
2022/05/21 01:35:02;;;;;;;1.13;0.55;;;16.80;99.90;16.90;100402.00;;;;4958302;28;87795;-68
2022/05/21 01:37:29;;;;;;;0.63;0.50;;;16.80;99.90;16.80;100408.00;;;;4957403;28;89514;-68
2022/05/21 01:39:54;;;;;;;0.32;0.32;;;16.70;99.90;16.80;100412.00;;;;4957568;28;88541;-68
2022/05/21 01:42:20;;;;;;;1.67;0.40;;;16.70;99.90;16.70;100419.00;;;;4956416;28;98899;-68
2022/05/21 01:45:01;;;;;;;0.73;0.45;;;16.60;99.90;16.70;100432.00;;;;4957884;28;95641;-68
2022/05/21 01:47:34;;;;;;;0.38;0.38;;;16.60;99.90;16.60;100424.00;;;;4955573;28;108574;-68
2022/05/21 01:50:00;;;;;;;0.13;0.13;;;16.60;99.90;16.60;100448.00;;;;4956111;28;88987;-68
2022/05/21 01:52:27;;;;;;;0.38;0.38;;;16.50;99.90;16.60;100434.00;;;;4956409;28;101823;-68
2022/05/21 01:54:53;;;;;;;0.45;0.35;;;16.50;99.90;16.50;100445.00;;;;4956063;28;100800;-69
2022/05/21 01:57:21;;;;;;;0.15;0.15;;;16.50;99.90;16.50;100459.00;;;;4956981;28;97122;-69
2022/05/21 01:59:47;;;;;;;0.10;0.10;;;16.40;99.90;16.40;100439.00;;;;4956509;28;116982;-68
2022/05/21 02:02:13;;;;;;;0.10;0.10;;;16.30;99.90;16.30;100462.00;;;;4955090;28;109792;-69
2022/05/21 02:04:38;;;;;;;0.10;0.10;;;16.20;99.90;16.20;100474.00;;;;4957433;28;87692;-68
2022/05/21 02:07:04;;;;;;;0.43;0.20;;;16.20;99.90;16.20;100471.00;;;;4956259;28;108034;-68
2022/05/21 02:09:30;;;;;;;0.20;0.20;;;16.10;99.90;16.10;100474.00;;;;4957737;28;87701;-68
2022/05/21 02:11:56;;;;;;;0.70;0.32;;;16.00;99.90;16.00;100477.00;;;;4954814;28;110108;-67
2022/05/21 02:14:21;;;;;;;0.75;0.38;;;16.00;99.90;16.00;100477.00;;;;4956340;28;107723;-68
2022/05/21 02:16:47;;;;;;;0.20;0.20;;;15.90;99.90;15.90;100485.00;;;;4955898;28;90013;-68
2022/05/21 02:19:13;;;;;;;0.55;0.40;;;15.80;99.90;15.80;100490.00;;;;4956323;28;116442;-68
2022/05/21 02:21:41;;;;;;;0.17;0.17;;;15.80;99.90;15.80;100484.00;;;;4956016;28;87795;-68
2022/05/21 02:24:08;;;;;;;0.55;0.40;;;15.70;99.90;15.80;100494.00;;;;4956558;28;87820;-69
2022/05/21 02:26:38;;;;;;;0.60;0.50;;;15.70;99.90;15.70;100494.00;;;;4956162;28;88944;-68
2022/05/21 02:29:06;;;;;;;0.40;0.30;;;15.60;99.90;15.60;100495.00;;;;4937401;28;107903;-68
2022/05/21 02:31:32;;;;;;;0.63;0.40;;;15.60;99.90;15.60;100498.00;;;;4938260;28;97279;-67
2022/05/21 02:33:58;;;;;;;0.38;0.38;;;15.50;99.90;15.50;100503.00;;;;4957033;28;87076;-67
2022/05/21 02:41:56;;;;;;;0.30;0.30;;;15.40;99.90;15.40;100511.00;;;;4953229;28;88636;-69
2022/05/21 02:44:22;;;;;;;0.25;0.25;;;15.30;99.90;15.40;100524.00;;;;4956880;28;87768;-67
2022/05/21 02:46:47;;;;;;;0.60;0.60;;;15.30;99.90;15.30;100511.00;;;;4937557;28;90241;-68
2022/05/21 02:49:14;;;;;;;0.63;0.52;;;15.30;99.90;15.30;100524.00;;;;4956224;28;88535;-68
2022/05/21 02:51:39;;;;;;;0.40;0.40;;;15.20;99.90;15.30;100538.00;;;;4956947;28;87846;-68
2022/05/21 02:54:06;;;;;;;0.85;0.28;;;15.20;99.90;15.30;100543.00;;;;4956821;28;87786;-68
2022/05/21 02:56:36;;;;;;;0.20;0.20;;;15.20;99.90;15.20;100535.00;;;;4955391;28;88862;-67
2022/05/21 02:59:06;;;;;;;3.38;0.60;;;15.10;99.90;15.20;100528.00;;;;4956307;28;88876;-69
2022/05/21 03:01:33;;;;;;;0.43;0.43;;;15.10;99.90;15.20;100545.00;;;;4937924;28;88041;-68
2022/05/21 03:04:00;;;;;;;0.20;0.20;;;15.10;99.90;15.20;100551.00;;;;4955805;28;87984;-68
2022/05/21 03:06:26;;;;;;;0.50;0.50;;;15.10;99.90;15.20;100559.00;;;;4969865;28;89215;-70
2022/05/21 03:11:36;;;;;;;0.65;0.65;;;15.10;99.90;15.10;100559.00;;;;4953243;28;87422;-69
2022/05/21 03:14:02;;;;;;;0.50;0.50;;;15.00;99.90;15.10;100568.00;;;;4954981;28;108302;-68
2022/05/21 03:16:27;;;;;;;0.77;0.73;;;15.10;99.90;15.10;100570.00;;;;4955069;28;118873;-69
2022/05/21 03:18:53;;;;;;;1.13;0.70;;;15.10;99.90;15.20;100570.00;;;;4954686;28;117437;-69
2022/05/21 03:21:19;;;;;;;0.50;0.50;;;15.10;99.90;15.20;100567.00;;;;4937152;28;110705;-68
2022/05/21 03:23:44;;;;;;;0.73;0.73;;;15.10;99.90;15.30;100563.00;;;;4955909;28;87020;-68
2022/05/21 03:26:10;;;;;;;0.50;0.50;;;15.20;99.90;15.30;100570.00;;;;4954616;28;117764;-69
2022/05/21 03:28:36;;;;;;;1.05;0.70;;;15.20;99.90;15.40;100566.00;;;;4954741;28;117449;-68
2022/05/21 03:31:02;;;;;;;1.35;0.40;;;15.20;99.90;15.40;100568.00;;;;4955261;28;109762;-69
2022/05/21 03:33:28;;;;;;;1.20;0.95;;;15.30;99.90;15.50;100582.00;;;;4956161;28;87626;-69
2022/05/21 03:35:54;;;;;;;1.27;0.47;;;15.30;99.90;15.50;100574.00;;;;4955386;28;118230;-69
2022/05/21 03:38:20;;;;;;;0.52;0.52;;;15.40;99.90;15.60;100566.00;;;;4953969;28;118067;-68
2022/05/21 03:40:46;;;;;;;0.77;0.60;;;15.40;99.90;15.60;100581.00;;;;4955771;28;87471;-69
2022/05/21 03:43:12;;;;;;;3.15;0.60;;;15.50;99.90;15.60;100586.00;;;;4936808;28;87734;-69
2022/05/21 03:45:37;;;;;;;0.60;0.43;;;15.50;99.90;15.70;100586.00;;;;4954737;28;116775;-68
2022/05/21 03:48:08;;;;;;;0.55;0.55;;;15.50;99.90;15.70;100609.00;;;;4954875;28;117258;-68
2022/05/21 03:50:34;;;;;;;0.45;0.45;;;15.60;99.90;15.70;100599.00;;;;4956586;28;88051;-69
2022/05/21 03:53:01;;;;;;;0.70;0.60;;;15.60;99.90;15.70;100618.00;;;;4955709;28;87669;-69
2022/05/21 03:55:26;;;;;;;1.05;0.95;;;15.60;99.90;15.70;100609.00;;;;4954809;28;89801;-69
2022/05/21 03:57:52;;;;;;;0.40;0.40;;;15.60;99.90;15.70;100621.00;;;;4947186;28;119018;-68
2022/05/21 04:00:20;;;;;;;0.70;0.40;;;15.60;99.90;15.70;100619.00;;;;4954628;28;110076;-69
2022/05/21 04:02:46;;;;;;;0.95;0.45;;;15.90;99.90;15.70;100616.00;;;;4955824;28;87547;-68
2022/05/21 04:05:14;;;;;;;1.73;0.85;;;15.60;99.90;15.70;100633.00;;;;4954738;28;88860;-69
2022/05/21 04:07:43;;;;;;;0.47;0.47;;;15.60;99.90;15.70;100631.00;;;;4936582;28;87723;-69
2022/05/21 04:10:12;;;;;;;0.50;0.45;;;15.60;99.90;15.70;100639.00;;;;4954498;28;110868;-68
2022/05/21 04:12:37;;;;;;;0.30;0.30;;;15.60;99.90;15.70;100641.00;;;;4955562;28;86859;-69
2022/05/21 04:15:04;;;;;;;0.40;0.35;;;15.60;99.90;15.70;100642.00;;;;4954204;28;119238;-69
2022/05/21 04:17:29;;;;;;;0.30;0.30;;;15.60;99.90;15.70;100644.00;;;;4954769;28;88203;-68
2022/05/21 04:19:55;;;;;;;0.47;0.45;;;15.60;99.90;15.70;100644.00;;;;4952889;28;109682;-69
2022/05/21 04:22:21;;;;;;;1.10;0.40;;;15.60;99.90;15.70;100648.00;;;;4954660;28;109584;-68
2022/05/21 04:24:46;;;;;;;0.40;0.40;;;15.60;99.90;15.60;100642.00;;;;4954638;28;88685;-69
2022/05/21 04:27:12;;;;;;;0.60;0.47;;;15.60;99.90;15.60;100644.00;;;;4954101;28;115434;-69
2022/05/21 04:29:38;;;;;;;0.20;0.20;;;15.50;99.90;15.60;100649.00;;;;4953968;28;110574;-69
2022/05/21 04:32:16;;;;;;;0.30;0.30;;;15.50;99.90;15.60;100658.00;;;;4954742;28;87899;-68
2022/05/21 04:34:41;;;;;;;0.40;0.40;;;15.50;99.90;15.60;100656.00;;;;4935027;28;96889;-69
2022/05/21 04:37:07;;;;;;;0.90;0.47;;;15.40;99.90;15.50;100664.00;;;;4953944;28;118977;-69
2022/05/21 04:39:36;;;;;;;0.30;0.30;;;15.40;99.90;15.40;100676.00;;;;4954357;28;108567;-68
2022/05/21 04:42:02;;;;;;;0.20;0.20;;;15.40;99.90;15.40;100668.00;;;;4934303;28;107002;-69
2022/05/21 04:44:31;;;;;;;0.22;0.22;;;15.30;99.90;15.30;100677.00;;;;4946447;28;107142;-68
2022/05/21 04:46:58;;;;;;;0.28;0.28;;;15.20;99.90;15.30;100671.00;;;;4957926;28;89600;-69
2022/05/21 04:49:55;;;;;;;0.38;0.38;;;15.20;99.90;15.20;100685.00;;;;4957469;28;101567;-69
2022/05/21 04:52:21;;;;;;;0.20;0.20;;;15.20;99.90;15.20;100692.00;;;;4957773;28;107570;-69
2022/05/21 04:54:47;;;;;;;1.50;0.30;;;15.10;99.90;15.10;100683.00;;;;4958859;28;88261;-67
2022/05/21 04:57:12;;;;;;;0.20;0.20;;;15.00;99.90;15.10;100698.00;;;;4949864;28;87958;-69
2022/05/21 04:59:38;;;;;;;1.95;0.35;;;15.00;99.90;15.10;100696.00;;;;4957180;28;109512;-68
2022/05/21 05:02:13;;;;;;;0.22;0.20;;;15.00;99.90;15.00;100694.00;;;;4957337;28;108274;-68
2022/05/21 05:04:39;;;;;;;0.60;0.60;;;15.00;99.90;15.00;100702.00;;;;4934763;28;108867;-69
2022/05/21 05:07:09;;;;;;;0.50;0.50;;;15.00;99.90;15.00;100700.00;;;;4957696;28;117704;-68
2022/05/21 05:09:53;;;;;;;0.15;0.15;;;14.90;99.90;15.00;100710.00;;;;4973498;28;89355;-68
2022/05/21 05:12:19;;;;;;;0.52;0.50;;;15.00;99.90;15.10;100711.00;;;;4932393;28;87533;-68
2022/05/21 05:14:44;;;;;;;0.40;0.40;;;15.00;99.90;15.20;100717.00;;;;4949384;28;117901;-69
2022/05/21 05:17:13;;;;;;;0.45;0.30;;;15.00;99.90;15.30;100715.00;;;;4968364;28;110622;-68
2022/05/21 05:19:39;;;;;;;1.27;0.40;;;15.20;99.90;15.50;100716.00;;;;4954833;28;87820;-69
2022/05/21 05:22:09;;;;;;;0.25;0.25;;;15.30;99.90;15.70;100709.00;;;;4966877;28;88010;-69
2022/05/21 05:24:36;;;;;;;0.30;0.30;;;15.50;99.90;15.90;100701.00;;;;4968167;28;89126;-68
2022/05/21 05:27:03;;;;;;;0.55;0.55;;;15.60;99.90;16.00;100726.00;;;;4964098;28;88347;-68
2022/05/21 05:29:28;;;;;;;0.77;0.60;;;15.80;99.90;16.30;100720.00;;;;4966440;28;87985;-68
2022/05/21 05:31:54;;;;;;;0.20;0.20;;;16.00;99.90;16.50;100733.00;;;;4973138;28;109902;-68
2022/05/21 05:34:20;;;;;;;0.50;0.50;;;16.30;99.90;16.60;100725.00;;;;4965369;28;118346;-68
2022/05/21 05:36:49;;;;;;;0.35;0.35;;;16.40;99.90;16.80;100727.00;;;;4964781;28;117134;-69
2022/05/21 05:39:16;;;;;;;0.32;0.32;;;16.60;99.50;16.80;100738.00;;;;4951297;28;88057;-69
2022/05/21 05:41:42;;;;;;;0.65;0.50;;;16.60;99.30;16.90;100739.00;;;;4961836;28;87649;-68
2022/05/21 05:44:08;;;;;;;0.28;0.28;;;16.70;98.60;17.00;100728.00;;;;4961645;28;88484;-68
2022/05/21 05:46:33;;;;;;;0.95;0.55;;;16.80;98.00;17.10;100722.00;;;;4961889;28;117670;-69
2022/05/21 05:48:59;;;;;;;1.35;0.73;;;16.90;96.70;17.10;100748.00;;;;4971169;28;110061;-68
2022/05/21 05:51:26;;;;;;;0.80;0.63;;;16.90;96.10;17.10;100748.00;;;;4966882;28;109038;-68
2022/05/21 05:53:52;;;;;;;0.70;0.65;;;17.00;95.70;17.10;100750.00;;;;4973221;28;88729;-68
2022/05/21 05:56:18;;;;;;;0.30;0.30;;;17.00;95.40;17.00;100763.00;;;;4970639;28;93239;-68
2022/05/21 06:01:30;;;;;;;0.65;0.60;;;16.80;94.90;16.60;100776.00;;;;4965885;28;87784;-68
2022/05/21 06:03:56;;;;;;;0.50;0.50;;;16.60;95.00;16.50;100773.00;;;;4969181;28;117362;-68
2022/05/21 06:06:23;;;;;;;0.43;0.43;;;16.50;95.40;16.30;100765.00;;;;4965722;28;117485;-67
2022/05/21 06:08:49;;;;;;;0.80;0.70;;;16.30;95.60;16.20;100775.00;;;;4972003;28;87948;-68
2022/05/21 06:11:16;;;;;;;0.30;0.30;;;16.10;95.20;16.10;100777.00;;;;4967919;28;87805;-68
2022/05/21 06:13:42;;;;;;;0.80;0.50;;;16.10;95.70;16.10;100776.00;;;;4973737;28;88843;-68
2022/05/21 06:16:11;;;;;;;0.47;0.43;;;16.00;96.30;16.30;100781.00;;;;4936465;28;97232;-68
2022/05/21 06:18:37;;;;;;;2.08;0.73;;;16.10;96.90;16.30;100791.00;;;;4971745;28;87898;-68
2022/05/21 06:21:05;;;;;;;1.88;0.70;;;16.20;97.10;16.50;100786.00;;;;4966694;28;109698;-68
2022/05/21 06:23:34;;;;;;;0.82;0.50;;;16.30;97.40;16.70;100774.00;;;;4953899;28;89346;-69
2022/05/21 06:26:00;;;;;;;0.60;0.60;;;16.50;97.20;16.80;100798.00;;;;4967750;28;118549;-67
2022/05/21 06:28:27;;;;;;;0.68;0.52;;;16.60;96.20;16.80;100785.00;;;;4972434;28;110522;-68
2022/05/21 06:30:53;;;;;;;0.55;0.47;;;16.60;94.50;16.60;100793.00;;;;4966874;28;94561;-67
2022/05/21 06:33:20;;;;;;;0.75;0.45;;;16.50;92.90;16.60;100790.00;;;;4971420;28;116978;-67
2022/05/21 06:36:01;;;;;;;0.60;0.43;;;16.50;91.60;16.70;100785.00;;;;4965733;28;88142;-67
2022/05/21 06:38:27;;;;;;;0.30;0.30;;;16.50;90.20;16.90;100793.00;;;;4963679;28;88054;-68
2022/05/21 06:40:53;;;;;;;0.73;0.50;;;16.60;88.00;17.10;100797.00;;;;4963368;28;107271;-68
2022/05/21 06:43:20;;;;;;;0.50;0.20;;;16.90;87.70;17.40;100796.00;;;;4971367;28;116553;-68
2022/05/21 06:45:46;;;;;;;0.45;0.32;;;17.10;86.60;17.70;100806.00;;;;4969144;28;87811;-68
2022/05/21 06:48:11;;;;;;;0.35;0.35;;;17.40;83.90;18.00;100803.00;;;;4971428;28;109144;-67
2022/05/21 06:50:40;;;;;;;1.05;0.47;;;17.70;83.80;18.20;100797.00;;;;4964151;28;108372;-67
2022/05/21 06:53:06;;;;;;;0.65;0.40;;;17.90;83.10;18.10;100805.00;;;;4972406;28;90226;-68
2022/05/21 06:55:32;;;;;;;0.60;0.60;;;18.00;82.60;17.80;100804.00;;;;4967268;28;115816;-68
2022/05/21 06:57:58;;;;;;;0.40;0.40;;;17.80;83.20;17.70;100798.00;;;;4966258;28;87585;-68
2022/05/21 07:00:24;;;;;;;0.90;0.43;;;17.70;84.60;17.60;100804.00;;;;4965102;28;107066;-68
2022/05/21 07:02:52;;;;;;;0.60;0.50;;;17.60;85.40;17.60;100796.00;;;;4969413;28;94258;-69
2022/05/21 07:08:05;;;;;;;0.85;0.45;;;17.50;84.50;17.70;100804.00;;;;4967926;28;87820;-69
2022/05/21 07:10:32;;;;;;;0.40;0.40;;;17.60;81.50;17.70;100801.00;;;;4964276;28;87717;-67
2022/05/21 07:12:58;;;;;;;0.47;0.47;;;17.60;79.90;17.80;100801.00;;;;4967219;28;89981;-68
2022/05/21 07:15:24;;;;;;;0.40;0.32;;;17.60;79.30;17.90;100812.00;;;;4964660;28;120238;-67
2022/05/21 07:17:49;;;;;;;0.20;0.20;;;17.70;78.60;18.00;100819.00;;;;4972070;28;87859;-68
2022/05/21 07:20:21;;;;;;;3.00;0.60;;;17.80;78.80;18.20;100804.00;;;;4960898;28;102308;-68
2022/05/21 07:22:48;;;;;;;0.28;0.28;;;18.00;76.70;18.40;100810.00;;;;4953677;28;87929;-68
2022/05/21 07:25:23;;;;;;;0.38;0.38;;;18.20;76.60;18.50;100805.00;;;;4964633;28;117687;-68
2022/05/21 07:27:50;;;;;;;1.70;0.40;;;18.20;76.20;18.70;100805.00;;;;4953418;28;87901;-67
2022/05/21 07:30:16;;;;;;;3.53;0.70;;;18.50;76.70;18.90;100815.00;;;;4961498;28;86947;-68
2022/05/21 07:32:44;;;;;;;0.47;0.43;;;18.70;73.70;19.00;100814.00;;;;4966180;28;119252;-68
2022/05/21 07:35:15;;;;;;;7.60;0.80;;;18.80;71.20;18.90;100809.00;;;;4963823;28;88711;-67
2022/05/21 07:37:40;;;;;;;0.40;0.40;;;18.90;70.00;19.00;100812.00;;;;4969573;28;88782;-68
2022/05/21 07:40:08;;;;;;;0.52;0.30;;;18.90;69.30;18.90;100816.00;;;;4970186;28;89132;-67
2022/05/21 07:42:46;;;;;;;0.85;0.82;;;18.80;67.50;18.80;100819.00;;;;4956769;28;88545;-67
2022/05/21 07:45:15;;;;;;;0.40;0.40;;;18.80;68.60;18.90;100821.00;;;;4970498;28;92088;-68
2022/05/21 07:47:41;;;;;;;1.25;0.47;;;18.80;67.30;19.00;100828.00;;;;4953254;28;87763;-68
2022/05/21 07:50:08;;;;;;;2.67;0.40;;;18.90;67.40;19.20;100811.00;;;;4966304;28;99848;-68
2022/05/21 07:52:34;;;;;;;0.68;0.30;;;19.10;66.40;19.30;100817.00;;;;4970822;28;88146;-68
2022/05/21 07:54:59;;;;;;;0.47;0.47;;;19.20;64.80;19.20;100816.00;;;;4969530;28;107287;-68
2022/05/21 07:57:25;;;;;;;1.30;0.50;;;19.10;63.80;19.20;100805.00;;;;4969209;28;110247;-69
2022/05/21 07:59:51;;;;;;;0.75;0.28;;;19.10;64.10;19.30;100817.00;;;;4951957;28;87899;-69
2022/05/21 08:02:19;;;;;;;1.42;0.88;;;19.20;63.20;19.30;100815.00;;;;4977160;28;105105;-68
2022/05/21 08:04:46;;;;;;;0.40;0.40;;;19.20;63.00;19.40;100819.00;;;;4971549;28;89765;-69
2022/05/21 08:07:13;;;;;;;0.60;0.60;;;19.20;62.30;19.40;100815.00;;;;4963117;28;87755;-70
2022/05/21 08:09:39;;;;;;;0.68;0.68;;;19.30;62.20;19.60;100801.00;;;;4969023;28;100227;-68
2022/05/21 08:12:14;;;;;;;0.52;0.50;;;19.40;61.30;19.60;100814.00;;;;4963204;28;111532;-67
2022/05/21 08:14:41;;;;;;;0.70;0.60;;;19.50;61.50;19.80;100825.00;;;;4971818;28;87991;-68
2022/05/21 08:17:08;;;;;;;0.75;0.50;;;19.60;61.90;20.00;100806.00;;;;4969096;28;87741;-68
2022/05/21 08:19:34;;;;;;;4.20;1.02;;;19.80;61.00;20.20;100816.00;;;;4971012;28;87068;-67
2022/05/21 08:26:56;;;;;;;0.57;0.40;;;20.00;59.40;20.10;100815.00;;;;4967060;28;109990;-68
2022/05/21 08:27:31;;;;;;;5.20;0.60;;;19.90;58.70;19.80;100823.00;;;;4941218;28;88677;-67
2022/05/21 08:29:57;;;;;;;1.38;0.35;;;19.70;58.80;19.80;100815.00;;;;4971411;28;87639;-68
2022/05/21 08:32:23;;;;;;;3.60;0.75;;;19.80;59.30;19.90;100815.00;;;;4967607;28;117613;-67
2022/05/21 08:34:52;;;;;;;0.35;0.30;;;19.80;60.00;20.00;100811.00;;;;4974474;28;89040;-68
2022/05/21 08:37:20;;;;;;;2.22;0.52;;;19.80;59.10;20.00;100813.00;;;;4969444;28;88141;-67
2022/05/21 08:39:46;;;;;;;0.20;0.20;;;19.90;59.20;20.20;100818.00;;;;4958519;28;87863;-69
2022/05/21 08:42:38;;;;;;;0.38;0.38;;;20.00;58.90;20.40;100812.00;;;;4955425;28;109486;-68
2022/05/21 08:45:25;;;;;;;0.43;0.30;;;20.20;59.30;20.80;100809.00;;;;4951281;28;109561;-69
2022/05/21 08:48:03;;;;;;;0.47;0.43;;;20.50;57.70;20.90;100802.00;;;;4951851;28;102457;-67
2022/05/21 08:50:34;;;;;;;0.75;0.60;;;20.70;57.40;21.00;100816.00;;;;4964287;28;101766;-67
2022/05/21 08:53:14;;;;;;;0.25;0.25;;;20.70;57.40;21.10;100806.00;;;;4971175;28;89832;-68
2022/05/21 08:55:52;;;;;;;0.73;0.55;;;20.90;57.30;21.20;100798.00;;;;4946633;28;100518;-67
2022/05/21 08:58:53;;;;;;;1.15;0.60;;;21.00;54.70;21.00;100801.00;;;;4974729;28;87878;-67
2022/05/21 09:01:23;;;;;;;0.65;0.60;;;20.90;54.10;20.70;100817.00;;;;4945262;28;87929;-68
2022/05/21 09:03:53;;;;;;;0.98;0.40;;;20.70;54.70;20.60;100813.00;;;;4951622;28;90562;-69
2022/05/21 09:06:18;;;;;;;0.50;0.30;;;20.60;56.10;20.50;100810.00;;;;4972481;28;87892;-68
2022/05/21 09:09:22;;;;;;;0.40;0.40;;;20.40;57.20;20.50;100820.00;;;;4972918;28;94473;-68
2022/05/21 09:11:54;;;;;;;3.70;1.05;;;20.30;57.80;20.40;100820.00;;;;4958637;28;87296;-67
2022/05/21 09:14:42;;;;;;;0.57;0.40;;;20.30;57.10;20.50;100805.00;;;;4949521;28;111606;-69
2022/05/21 09:17:15;;;;;;;1.00;0.35;;;20.30;57.70;20.70;100811.00;;;;4953755;28;88113;-68
2022/05/21 09:19:50;;;;;;;0.20;0.20;;;20.40;57.90;20.80;100799.00;;;;4941596;28;89269;-68
2022/05/21 09:22:20;;;;;;;0.80;0.57;;;20.50;58.00;20.80;100806.00;;;;4979146;28;87890;-68
2022/05/21 09:24:49;;;;;;;0.80;0.20;;;20.60;57.40;20.80;100807.00;;;;4962868;28;88538;-68
2022/05/21 09:27:33;;;;;;;0.20;0.20;;;20.60;57.10;20.90;100797.00;;;;4966031;28;111668;-68
2022/05/21 09:30:50;;;;;;;0.73;0.60;;;20.70;57.60;20.90;100805.00;;;;4927461;28;87850;-69
2022/05/21 09:33:45;;;;;;;0.45;0.45;;;20.70;56.50;20.80;100804.00;;;;4959018;28;89921;-67
2022/05/21 09:36:21;;;;;;;0.70;0.30;;;20.60;56.40;20.60;100808.00;;;;4951640;28;88176;-67
2022/05/21 09:38:53;;;;;;;0.90;0.40;;;20.50;56.10;20.50;100802.00;;;;4952263;28;87751;-67
2022/05/21 09:41:23;;;;;;;0.35;0.35;;;20.40;56.90;20.70;100800.00;;;;4970085;28;88060;-66
2022/05/21 09:46:43;;;;;;;3.63;0.52;;;20.60;57.40;21.00;100799.00;;;;4966385;28;89125;-69
2022/05/21 09:49:25;;;;;;;0.38;0.35;;;20.70;56.60;21.00;100798.00;;;;4940573;28;89691;-68
2022/05/21 09:52:05;;;;;;;3.90;0.63;;;20.70;56.40;21.00;100796.00;;;;4958770;28;87617;-67
2022/05/21 09:54:40;;;;;;;0.47;0.40;;;20.80;56.70;21.20;100787.00;;;;4963957;28;87872;-68
2022/05/21 09:57:21;;;;;;;1.23;0.45;;;20.90;56.50;21.20;100788.00;;;;4952279;28;88096;-67
2022/05/21 10:00:00;;;;;;;0.28;0.28;;;21.00;55.50;21.20;100776.00;;;;4928027;28;111116;-67
2022/05/21 10:02:41;;;;;;;0.85;0.52;;;21.00;54.70;21.30;100784.00;;;;4969816;28;88143;-67
2022/05/21 10:05:08;;;;;;;1.85;0.80;;;21.10;54.60;21.40;100785.00;;;;4950809;28;87253;-67
2022/05/21 10:10:58;;;;;;;0.22;0.22;;;21.20;55.20;21.80;100782.00;;;;4965647;28;87489;-66
2022/05/21 10:13:27;;;;;;;0.30;0.30;;;21.40;54.00;22.00;100773.00;;;;4952671;28;88840;-68
2022/05/21 10:16:11;;;;;;;0.55;0.40;;;21.60;53.20;22.20;100783.00;;;;4946869;28;87829;-67
2022/05/21 10:18:54;;;;;;;0.40;0.40;;;21.90;53.10;22.20;100771.00;;;;4973301;28;88034;-66
2022/05/21 10:22:16;;;;;;;0.63;0.47;;;22.00;51.60;22.00;100790.00;;;;4951445;28;105873;-67
2022/05/21 10:25:05;;;;;;;1.55;0.45;;;21.80;51.60;22.00;100792.00;;;;4931110;28;87980;-67
2022/05/21 10:28:04;;;;;;;1.08;0.50;;;21.70;52.10;22.00;100783.00;;;;4954898;28;87811;-67
2022/05/21 10:30:41;;;;;;;1.35;0.52;;;21.80;51.80;22.00;100787.00;;;;4916368;28;114126;-68
2022/05/21 10:33:10;;;;;;;0.52;0.47;;;21.70;51.90;22.00;100790.00;;;;4948540;28;87092;-67
2022/05/21 10:36:18;;;;;;;0.93;0.43;;;21.70;51.90;22.10;100789.00;;;;4945292;28;89305;-67
2022/05/21 10:39:09;;;;;;;0.50;0.50;;;21.80;51.10;22.30;100777.00;;;;4938796;28;88016;-68
2022/05/21 10:45:34;;;;;;;0.57;0.43;;;22.10;50.00;22.50;100784.00;;;;4946610;28;87837;-67
2022/05/21 10:48:48;;;;;;;0.40;0.40;;;22.20;50.20;22.60;100767.00;;;;4920383;28;88716;-67
2022/05/21 10:51:36;;;;;;;0.57;0.57;;;22.30;50.20;22.90;100775.00;;;;4948525;28;87646;-69
2022/05/21 10:54:39;;;;;;;0.90;0.77;;;22.50;50.70;22.80;100781.00;;;;4928313;28;87700;-67
2022/05/21 10:57:29;;;;;;;0.93;0.63;;;22.50;50.60;22.50;100771.00;;;;4946021;28;101825;-68
2022/05/21 11:00:40;;;;;;;0.80;0.73;;;22.30;50.20;22.30;100778.00;;;;4952900;28;90369;-67
2022/05/21 11:03:55;;;;;;;1.15;0.77;;;22.20;51.00;22.10;100785.00;;;;4933169;28;88190;-67
2022/05/21 11:06:25;;;;;;;3.28;0.90;;;22.00;51.30;22.00;100774.00;;;;4927705;28;90759;-67
2022/05/21 11:09:31;;;;;;;0.55;0.45;;;21.80;51.80;21.90;100784.00;;;;4963779;28;88201;-68
2022/05/21 11:12:19;;;;;;;1.55;0.57;;;21.70;52.40;21.90;100769.00;;;;4919936;28;101175;-68
2022/05/21 11:14:51;;;;;;;1.08;0.47;;;21.60;52.70;21.70;100774.00;;;;4946943;28;87842;-67
2022/05/21 11:17:35;;;;;;;1.10;0.73;;;21.60;53.00;21.50;100772.00;;;;4949616;28;88147;-68
2022/05/21 11:20:23;;;;;;;0.77;0.77;;;21.40;53.10;21.30;100772.00;;;;4949073;28;88240;-68
2022/05/21 11:23:18;;;;;;;1.85;0.80;;;21.20;53.10;20.90;100779.00;;;;4932652;28;92557;-67
2022/05/21 11:25:58;;;;;;;0.85;0.77;;;20.90;53.90;20.60;100797.00;;;;4941626;28;100635;-69
2022/05/21 11:28:43;;;;;;;1.58;1.08;;;20.60;54.70;20.40;100773.00;;;;4949380;28;87857;-68
2022/05/21 11:37:47;;;;;;;0.30;0.30;;;20.20;56.00;20.60;100786.00;;;;4908501;28;88070;-68
2022/05/21 11:44:55;;;;;;;0.90;0.80;;;20.40;56.00;20.60;100788.00;;;;4930479;28;88143;-68
2022/05/21 11:46:45;;;;;;;0.70;0.50;;;20.40;55.70;20.50;100792.00;;;;4932160;28;88115;-69